createdAt,value
2023-04-28T00:01:01.198Z,14.50
2023-04-28T00:03:29.416Z,14.50
2023-04-28T00:05:58.364Z,14.50
2023-04-28T00:08:27.628Z,14.50
2023-04-28T00:10:56.184Z,14.50
2023-04-28T00:13:24.574Z,14.50
2023-04-28T00:15:54.486Z,14.50
2023-04-28T00:18:23.477Z,14.60
2023-04-28T00:20:51.874Z,14.60
2023-04-28T00:23:19.920Z,14.50
2023-04-28T00:25:58.106Z,14.50
2023-04-28T00:28:33.990Z,14.50
2023-04-28T00:31:03.598Z,14.50
2023-04-28T00:33:31.679Z,14.40
2023-04-28T00:36:02.081Z,14.40
2023-04-28T00:38:30.587Z,14.40
2023-04-28T00:40:58.337Z,14.40
2023-04-28T00:43:26.624Z,14.50
2023-04-28T00:45:55.361Z,14.40
2023-04-28T00:48:25.003Z,14.40
2023-04-28T00:50:53.659Z,14.40
2023-04-28T00:53:22.330Z,14.30
2023-04-28T00:55:53.440Z,14.30
2023-04-28T00:58:21.574Z,14.20
2023-04-28T01:00:49.493Z,14.30
2023-04-28T01:03:17.904Z,14.30
2023-04-28T01:05:46.039Z,14.30
2023-04-28T01:08:14.225Z,14.30
2023-04-28T01:10:45.692Z,14.20
2023-04-28T01:13:33.813Z,14.30
2023-04-28T01:16:04.251Z,14.20
2023-04-28T01:18:33.000Z,14.20
2023-04-28T01:21:01.201Z,14.20
2023-04-28T01:23:29.395Z,14.10
2023-04-28T01:25:58.652Z,14.10
2023-04-28T01:28:26.997Z,14.10
2023-04-28T01:30:55.978Z,14.10
2023-04-28T01:33:24.016Z,14.00
2023-04-28T01:35:52.053Z,14.00
2023-04-28T01:38:20.186Z,14.00
2023-04-28T01:40:48.049Z,14.00
2023-04-28T01:43:16.024Z,14.00
2023-04-28T01:45:44.052Z,14.00
2023-04-28T01:48:12.259Z,14.00
2023-04-28T01:50:40.099Z,14.00
2023-04-28T01:53:08.443Z,14.00
2023-04-28T01:55:36.471Z,13.90
2023-04-28T01:58:04.851Z,13.90
2023-04-28T02:00:33.000Z,13.80
2023-04-28T02:03:01.405Z,13.80
2023-04-28T02:05:29.623Z,13.70
2023-04-28T02:07:57.794Z,13.60
2023-04-28T02:10:26.669Z,13.60
2023-04-28T02:12:55.552Z,13.50
2023-04-28T02:15:24.656Z,13.50
2023-04-28T02:17:54.719Z,13.50
2023-04-28T02:20:22.998Z,13.40
2023-04-28T02:22:50.963Z,13.40
2023-04-28T02:25:19.033Z,13.40
2023-04-28T02:27:47.061Z,13.40
2023-04-28T02:30:15.300Z,13.40
2023-04-28T02:32:44.420Z,13.40
2023-04-28T02:35:13.067Z,13.40
2023-04-28T02:37:41.202Z,13.40
2023-04-28T02:40:09.642Z,13.40
2023-04-28T02:42:37.600Z,13.40
2023-04-28T02:45:06.889Z,13.40
2023-04-28T02:47:34.870Z,13.40
2023-04-28T02:50:03.072Z,13.40
2023-04-28T02:52:31.012Z,13.40
2023-04-28T02:54:59.515Z,13.30
2023-04-28T02:57:27.353Z,13.30
2023-04-28T02:59:55.480Z,13.30
2023-04-28T03:02:24.610Z,13.30
2023-04-28T03:04:52.681Z,13.30
2023-04-28T03:07:20.647Z,13.30
2023-04-28T03:09:49.012Z,13.30
2023-04-28T03:12:16.889Z,13.30
2023-04-28T03:14:48.348Z,13.30
2023-04-28T03:17:18.046Z,13.30
2023-04-28T03:19:47.597Z,13.30
2023-04-28T03:22:15.741Z,13.30
2023-04-28T03:24:43.800Z,13.20
2023-04-28T03:27:12.328Z,13.20
2023-04-28T03:29:40.440Z,13.20
2023-04-28T03:32:08.661Z,13.20
2023-04-28T03:34:38.642Z,13.20
2023-04-28T03:37:06.832Z,13.20
2023-04-28T03:39:35.448Z,13.20
2023-04-28T03:42:03.298Z,13.20
2023-04-28T03:45:10.456Z,13.20
2023-04-28T03:47:38.582Z,13.20
2023-04-28T03:50:06.950Z,13.10
2023-04-28T03:52:36.148Z,13.10
2023-04-28T03:55:04.130Z,13.10
2023-04-28T03:57:32.193Z,13.10
2023-04-28T04:00:00.253Z,13.10
2023-04-28T04:02:32.642Z,13.00
2023-04-28T04:05:01.440Z,13.00
2023-04-28T04:07:29.865Z,13.00
2023-04-28T04:09:58.153Z,13.00
2023-04-28T04:12:26.280Z,13.00
2023-04-28T04:14:55.482Z,13.00
2023-04-28T04:17:24.126Z,13.00
2023-04-28T04:19:52.459Z,13.00
2023-04-28T04:22:20.287Z,13.00
2023-04-28T04:24:48.846Z,13.10
2023-04-28T04:27:16.917Z,13.00
2023-04-28T04:29:45.270Z,13.10
2023-04-28T04:32:14.971Z,13.10
2023-04-28T04:34:43.944Z,13.10
2023-04-28T04:37:13.420Z,13.20
2023-04-28T04:39:52.927Z,13.20
2023-04-28T04:42:25.444Z,13.30
2023-04-28T04:45:09.755Z,13.30
2023-04-28T04:47:37.993Z,13.30
2023-04-28T04:50:06.488Z,13.40
2023-04-28T04:52:34.828Z,13.50
2023-04-28T04:55:03.127Z,13.60
2023-04-28T04:57:31.392Z,13.70
2023-04-28T05:00:19.681Z,13.70
2023-04-28T05:02:48.102Z,13.80
2023-04-28T05:05:21.924Z,13.90
2023-04-28T05:08:09.294Z,14.00
2023-04-28T05:10:37.665Z,14.10
2023-04-28T05:13:05.631Z,14.20
2023-04-28T05:15:34.821Z,14.30
2023-04-28T05:18:28.646Z,14.40
2023-04-28T05:20:57.787Z,14.60
2023-04-28T05:23:25.833Z,14.70
2023-04-28T05:25:54.022Z,14.80
2023-04-28T05:28:22.482Z,14.90
2023-04-28T05:30:54.426Z,15.00
2023-04-28T05:33:24.454Z,15.10
2023-04-28T05:35:52.753Z,15.20
2023-04-28T05:38:23.339Z,15.30
2023-04-28T05:40:52.761Z,15.40
2023-04-28T05:43:20.748Z,15.50
2023-04-28T05:45:53.189Z,15.60
2023-04-28T05:48:22.112Z,15.70
2023-04-28T05:50:50.045Z,15.80
2023-04-28T05:53:19.492Z,15.90
2023-04-28T05:55:47.691Z,16.00
2023-04-28T05:58:15.814Z,16.20
2023-04-28T06:00:43.640Z,16.30
2023-04-28T06:03:12.000Z,16.40
2023-04-28T06:05:40.464Z,16.50
2023-04-28T06:08:12.081Z,16.60
2023-04-28T06:10:40.349Z,16.70
2023-04-28T06:13:09.721Z,16.90
2023-04-28T06:15:38.438Z,17.00
2023-04-28T06:18:07.868Z,17.00
2023-04-28T06:20:36.814Z,17.10
2023-04-28T06:23:05.443Z,17.20
2023-04-28T06:25:33.823Z,17.30
2023-04-28T06:28:02.067Z,17.40
2023-04-28T06:30:30.216Z,17.50
2023-04-28T06:32:58.247Z,17.60
2023-04-28T06:35:26.576Z,17.60
2023-04-28T06:37:55.608Z,17.70
2023-04-28T06:40:26.663Z,17.70
2023-04-28T06:42:58.136Z,17.70
2023-04-28T06:45:35.869Z,17.80
2023-04-28T06:48:04.396Z,17.90
2023-04-28T06:50:32.535Z,18.00
2023-04-28T06:53:00.693Z,18.00
2023-04-28T06:55:30.963Z,18.10
2023-04-28T06:57:59.647Z,18.20
2023-04-28T07:00:27.806Z,18.20
2023-04-28T07:02:57.001Z,18.30
2023-04-28T07:05:25.018Z,18.30
2023-04-28T07:07:53.168Z,18.30
2023-04-28T07:10:21.530Z,18.30
2023-04-28T07:12:52.743Z,18.40
2023-04-28T07:15:21.013Z,18.40
2023-04-28T07:17:48.941Z,18.40
2023-04-28T07:20:16.972Z,18.50
2023-04-28T07:22:45.442Z,18.70
2023-04-28T07:25:14.046Z,18.80
2023-04-28T07:27:42.189Z,18.80
2023-04-28T07:30:26.046Z,18.80
2023-04-28T07:32:56.094Z,18.90
2023-04-28T07:35:24.760Z,18.90
2023-04-28T07:37:53.324Z,19.00
2023-04-28T07:40:21.369Z,19.00
2023-04-28T07:42:49.755Z,19.10
2023-04-28T07:45:18.360Z,19.10
2023-04-28T07:47:46.751Z,19.20
2023-04-28T07:50:14.780Z,19.40
2023-04-28T07:52:43.573Z,19.50
2023-04-28T07:55:11.583Z,19.60
2023-04-28T07:57:40.111Z,19.80
2023-04-28T08:00:09.100Z,19.80
2023-04-28T08:02:40.779Z,19.80
2023-04-28T08:05:10.278Z,20.00
2023-04-28T08:07:39.496Z,20.00
2023-04-28T08:10:08.070Z,20.10
2023-04-28T08:12:36.865Z,20.20
2023-04-28T08:15:05.357Z,20.30
2023-04-28T08:17:36.580Z,20.30
2023-04-28T08:20:07.880Z,20.40
2023-04-28T08:22:37.027Z,20.50
2023-04-28T08:25:05.106Z,20.50
2023-04-28T08:27:35.043Z,20.60
2023-04-28T08:30:03.209Z,20.60
2023-04-28T08:32:31.073Z,20.60
2023-04-28T08:34:59.379Z,20.70
2023-04-28T08:37:30.460Z,20.80
2023-04-28T08:40:10.484Z,20.90
2023-04-28T08:42:40.068Z,20.80
2023-04-28T08:45:08.965Z,20.90
2023-04-28T08:47:41.142Z,21.00
2023-04-28T08:50:09.808Z,21.10
2023-04-28T08:52:37.662Z,21.10
2023-04-28T08:55:10.703Z,21.20
2023-04-28T08:57:56.298Z,21.30
2023-04-28T09:00:25.425Z,21.40
2023-04-28T09:02:53.619Z,21.30
2023-04-28T09:05:22.292Z,21.30
2023-04-28T09:07:52.586Z,21.40
2023-04-28T09:10:22.189Z,21.50
2023-04-28T09:12:54.894Z,21.60
2023-04-28T09:15:38.946Z,21.70
2023-04-28T09:18:08.625Z,21.70
2023-04-28T09:20:37.564Z,21.70
2023-04-28T09:23:22.897Z,21.80
2023-04-28T09:26:11.411Z,21.90
2023-04-28T09:28:40.038Z,22.00
2023-04-28T09:31:34.926Z,22.10
2023-04-28T09:34:03.765Z,22.10
2023-04-28T09:36:31.789Z,22.10
2023-04-28T09:39:00.894Z,22.10
2023-04-28T09:41:42.903Z,22.20
2023-04-28T09:44:16.455Z,22.40
2023-04-28T09:46:46.338Z,22.40
2023-04-28T09:49:14.717Z,22.50
2023-04-28T09:51:42.984Z,22.70
2023-04-28T09:54:12.099Z,22.80
2023-04-28T09:56:43.136Z,22.80
2023-04-28T09:59:11.771Z,22.80
2023-04-28T10:01:41.590Z,22.80
2023-04-28T10:04:12.463Z,23.00
2023-04-28T10:06:41.459Z,23.10
2023-04-28T10:09:10.432Z,23.10
2023-04-28T10:11:39.844Z,23.00
2023-04-28T10:14:07.663Z,23.10
2023-04-28T10:16:36.459Z,23.30
2023-04-28T10:19:05.594Z,23.50
2023-04-28T10:21:41.792Z,23.60
2023-04-28T10:24:33.323Z,23.70
2023-04-28T10:27:10.116Z,23.60
2023-04-28T10:29:38.538Z,23.90
2023-04-28T10:32:19.274Z,24.00
2023-04-28T10:34:48.701Z,24.40
2023-04-28T10:37:18.878Z,24.70
2023-04-28T10:40:24.155Z,24.90
2023-04-28T10:42:53.810Z,25.20
2023-04-28T10:45:49.358Z,25.50
2023-04-28T10:48:17.750Z,25.70
2023-04-28T10:51:04.372Z,26.20
2023-04-28T10:53:47.619Z,26.80
2023-04-28T10:56:17.190Z,27.10
2023-04-28T10:58:49.794Z,27.30
2023-04-28T11:01:25.229Z,27.40
2023-04-28T11:04:06.989Z,27.60
2023-04-28T11:06:42.892Z,27.70
2023-04-28T11:09:16.498Z,27.50
2023-04-28T11:12:11.585Z,27.80
2023-04-28T11:14:41.122Z,28.00
2023-04-28T11:17:13.695Z,28.00
2023-04-28T11:19:45.763Z,28.10
2023-04-28T11:22:18.884Z,28.00
2023-04-28T11:25:04.513Z,28.00
2023-04-28T11:27:33.914Z,28.10
2023-04-28T11:30:02.435Z,28.10
2023-04-28T11:32:35.538Z,28.30
2023-04-28T11:35:07.479Z,28.10
2023-04-28T11:37:36.636Z,28.40
2023-04-28T11:40:14.272Z,28.50
2023-04-28T11:42:51.579Z,28.20
2023-04-28T11:45:19.895Z,28.50
2023-04-28T11:47:47.765Z,28.50
2023-04-28T11:50:16.858Z,28.50
2023-04-28T11:52:53.546Z,28.50
2023-04-28T11:55:22.231Z,28.90
2023-04-28T11:57:50.057Z,28.70
2023-04-28T12:00:22.547Z,28.70
2023-04-28T12:02:51.499Z,29.00
2023-04-28T12:05:22.806Z,29.00
2023-04-28T12:07:51.421Z,29.00
2023-04-28T12:10:20.297Z,29.00
2023-04-28T12:12:53.198Z,28.70
2023-04-28T12:15:25.312Z,28.80
2023-04-28T12:17:53.843Z,29.10
2023-04-28T12:20:40.512Z,29.20
2023-04-28T12:23:08.816Z,29.30
2023-04-28T12:25:45.387Z,29.20
2023-04-28T12:28:13.680Z,28.80
2023-04-28T12:30:44.883Z,28.90
2023-04-28T12:33:35.185Z,29.00
2023-04-28T12:36:06.179Z,28.60
2023-04-28T12:38:34.354Z,27.90
2023-04-28T12:41:02.211Z,27.90
2023-04-28T12:43:30.535Z,28.10
2023-04-28T12:45:58.492Z,28.00
2023-04-28T12:48:28.073Z,27.30
2023-04-28T12:50:56.411Z,26.80
2023-04-28T12:53:24.264Z,26.50
2023-04-28T12:55:52.738Z,26.30
2023-04-28T12:58:20.493Z,26.20
2023-04-28T13:00:48.786Z,26.10
2023-04-28T13:03:16.884Z,25.80
2023-04-28T13:05:44.988Z,25.40
2023-04-28T13:08:14.189Z,25.50
2023-04-28T13:10:42.344Z,25.70
2023-04-28T13:13:10.356Z,25.60
2023-04-28T13:15:39.956Z,25.40
2023-04-28T13:18:08.461Z,25.30
2023-04-28T13:20:36.590Z,24.80
2023-04-28T13:23:04.457Z,24.40
2023-04-28T13:25:32.496Z,24.20
2023-04-28T13:28:00.277Z,24.10
2023-04-28T13:30:28.653Z,24.00
2023-04-28T13:32:57.709Z,23.90
2023-04-28T13:35:26.852Z,23.70
2023-04-28T13:38:02.801Z,23.80
2023-04-28T13:40:31.476Z,23.80
2023-04-28T13:42:59.447Z,23.60
2023-04-28T13:45:27.638Z,23.30
2023-04-28T13:47:56.024Z,23.20
2023-04-28T13:50:24.353Z,23.10
2023-04-28T13:52:52.413Z,23.20
2023-04-28T13:55:28.291Z,23.30
2023-04-28T13:57:57.353Z,23.30
2023-04-28T14:00:25.687Z,23.30
2023-04-28T14:02:54.092Z,23.30
2023-04-28T14:05:22.809Z,23.30
2023-04-28T14:07:51.007Z,23.10
2023-04-28T14:10:19.147Z,22.70
2023-04-28T14:12:47.328Z,22.70
2023-04-28T14:15:16.505Z,22.60
2023-04-28T14:17:44.977Z,22.50
2023-04-28T14:20:13.716Z,22.50
2023-04-28T14:22:41.836Z,22.40
2023-04-28T14:25:10.204Z,22.50
2023-04-28T14:27:38.277Z,22.50
2023-04-28T14:30:06.719Z,22.60
2023-04-28T14:32:35.104Z,22.70
2023-04-28T14:35:05.808Z,22.70
2023-04-28T14:37:34.397Z,22.70
2023-04-28T14:40:02.817Z,22.80
2023-04-28T14:42:33.218Z,23.00
2023-04-28T14:45:02.017Z,23.00
2023-04-28T14:47:31.127Z,23.10
2023-04-28T14:49:59.554Z,23.10
2023-04-28T14:52:29.716Z,23.10
2023-04-28T14:54:59.317Z,23.10
2023-04-28T14:57:28.031Z,23.00
2023-04-28T14:59:56.742Z,22.80
2023-04-28T15:02:29.600Z,22.90
2023-04-28T15:04:58.665Z,23.00
2023-04-28T15:07:31.970Z,22.70
2023-04-28T15:10:00.301Z,22.60
2023-04-28T15:12:30.843Z,22.40
2023-04-28T15:14:59.385Z,22.50
2023-04-28T15:17:27.545Z,22.60
2023-04-28T15:19:55.855Z,22.70
2023-04-28T15:22:23.779Z,22.80
2023-04-28T15:24:52.902Z,22.90
2023-04-28T15:27:21.008Z,23.00
2023-04-28T15:29:49.133Z,23.00
2023-04-28T15:32:16.914Z,23.00
2023-04-28T15:34:45.576Z,22.90
2023-04-28T15:37:52.398Z,22.90
2023-04-28T15:40:21.983Z,22.70
2023-04-28T15:42:49.828Z,22.50
2023-04-28T15:45:19.349Z,22.40
2023-04-28T15:47:51.313Z,22.40
2023-04-28T15:50:20.619Z,22.20
2023-04-28T15:52:50.329Z,22.20
2023-04-28T15:55:20.487Z,22.30
2023-04-28T15:57:49.372Z,22.20
2023-04-28T16:00:17.643Z,22.20
2023-04-28T16:02:49.173Z,22.10
2023-04-28T16:05:17.366Z,22.00
2023-04-28T16:07:47.874Z,22.00
2023-04-28T16:10:17.059Z,21.90
2023-04-28T16:12:44.936Z,21.90
2023-04-28T16:15:14.456Z,21.90
2023-04-28T16:17:42.726Z,21.90
2023-04-28T16:20:12.525Z,21.90
2023-04-28T16:22:41.810Z,21.70
2023-04-28T16:25:10.855Z,21.70
2023-04-28T16:27:41.126Z,21.60
2023-04-28T16:30:10.442Z,21.50
2023-04-28T16:32:39.824Z,21.40
2023-04-28T16:35:15.209Z,21.40
2023-04-28T16:37:43.958Z,21.40
2023-04-28T16:40:12.817Z,21.40
2023-04-28T16:42:42.457Z,21.30
2023-04-28T16:45:11.382Z,21.20
2023-04-28T16:47:42.715Z,21.20
2023-04-28T16:50:12.249Z,21.10
2023-04-28T16:52:40.386Z,21.00
2023-04-28T16:55:10.004Z,21.00
2023-04-28T16:57:38.228Z,21.00
2023-04-28T17:00:06.738Z,21.00
2023-04-28T17:02:35.065Z,21.00
2023-04-28T17:05:03.069Z,21.00
2023-04-28T17:07:31.841Z,20.90
2023-04-28T17:09:59.774Z,20.90
2023-04-28T17:12:27.929Z,20.90
2023-04-28T17:14:56.920Z,20.80
2023-04-28T17:17:25.158Z,20.40
2023-04-28T17:19:53.409Z,20.10
2023-04-28T17:22:21.848Z,20.00
2023-04-28T17:24:49.671Z,19.90
2023-04-28T17:27:17.681Z,19.80
2023-04-28T17:29:45.473Z,19.60
2023-04-28T17:32:13.655Z,19.60
2023-04-28T17:34:42.122Z,19.40
2023-04-28T17:37:10.188Z,19.40
2023-04-28T17:39:38.517Z,19.30
2023-04-28T17:42:06.674Z,19.20
2023-04-28T17:44:34.599Z,19.10
2023-04-28T17:47:03.010Z,19.00
2023-04-28T17:49:31.237Z,18.90
2023-04-28T17:51:59.334Z,18.80
2023-04-28T17:54:27.261Z,18.80
2023-04-28T17:56:56.350Z,18.60
2023-04-28T17:59:24.486Z,18.50
2023-04-28T18:01:56.693Z,18.50
2023-04-28T18:04:25.183Z,18.50
2023-04-28T18:06:52.993Z,18.50
2023-04-28T18:09:20.990Z,18.50
2023-04-28T18:11:48.781Z,18.40
2023-04-28T18:14:18.665Z,18.30
2023-04-28T18:16:46.957Z,18.30
2023-04-28T18:19:15.247Z,18.20
2023-04-28T18:21:43.110Z,18.20
2023-04-28T18:24:11.230Z,18.30
2023-04-28T18:26:39.071Z,18.30
2023-04-28T18:29:07.046Z,18.30
2023-04-28T18:31:35.767Z,18.20
2023-04-28T18:34:04.386Z,18.20
2023-04-28T18:36:36.465Z,18.10
2023-04-28T18:39:06.213Z,18.00
2023-04-28T18:41:36.328Z,17.90
2023-04-28T18:44:04.468Z,17.90
2023-04-28T18:46:34.013Z,18.00
2023-04-28T18:49:04.088Z,18.00
2023-04-28T18:51:32.076Z,18.00
2023-04-28T18:54:00.101Z,18.10
2023-04-28T18:56:28.366Z,18.10
2023-04-28T18:58:56.519Z,18.20
2023-04-28T19:01:25.280Z,18.10
2023-04-28T19:03:54.259Z,18.10
2023-04-28T19:06:22.705Z,18.10
2023-04-28T19:08:50.589Z,18.10
2023-04-28T19:11:18.797Z,18.10
2023-04-28T19:13:46.839Z,18.00
2023-04-28T19:16:16.237Z,18.00
2023-04-28T19:18:44.988Z,18.00
2023-04-28T19:21:14.161Z,18.00
2023-04-28T19:23:42.270Z,17.90
2023-04-28T19:26:10.846Z,17.90
2023-04-28T19:28:39.053Z,17.90
2023-04-28T19:31:07.127Z,17.80
2023-04-28T19:33:35.243Z,17.80
2023-04-28T19:36:03.571Z,17.80
2023-04-28T19:38:32.061Z,17.80
2023-04-28T19:41:02.808Z,17.80
2023-04-28T19:43:31.120Z,17.80
2023-04-28T19:45:59.424Z,17.80
2023-04-28T19:48:27.679Z,17.70
2023-04-28T19:50:56.031Z,17.60
2023-04-28T19:53:24.784Z,17.60
2023-04-28T19:55:52.759Z,17.50
2023-04-28T19:58:21.306Z,17.40
2023-04-28T20:00:49.208Z,17.30
2023-04-28T20:03:17.697Z,17.30
2023-04-28T20:05:45.732Z,17.20
2023-04-28T20:08:14.030Z,17.00
2023-04-28T20:10:42.946Z,16.90
2023-04-28T20:13:11.307Z,16.90
2023-04-28T20:15:39.590Z,16.80
2023-04-28T20:18:08.060Z,16.70
2023-04-28T20:20:35.971Z,16.70
2023-04-28T20:23:04.040Z,16.70
2023-04-28T20:25:35.793Z,16.80
2023-04-28T20:28:04.148Z,16.90
2023-04-28T20:30:31.996Z,17.00
2023-04-28T20:33:00.181Z,17.00
2023-04-28T20:35:28.561Z,17.10
2023-04-28T20:37:58.210Z,17.30
2023-04-28T20:40:26.549Z,17.30
2023-04-28T20:42:55.290Z,17.40
2023-04-28T20:45:23.739Z,17.40
2023-04-28T20:47:51.789Z,17.40
2023-04-28T20:50:19.658Z,17.40
2023-04-28T20:52:47.707Z,17.30
2023-04-28T20:55:16.149Z,17.30
2023-04-28T20:57:44.251Z,17.30
2023-04-28T21:00:13.648Z,17.30
2023-04-28T21:02:41.814Z,17.20
2023-04-28T21:05:10.770Z,17.20
2023-04-28T21:07:39.070Z,17.20
2023-04-28T21:10:08.037Z,17.20
2023-04-28T21:12:36.608Z,17.20
2023-04-28T21:15:06.585Z,17.10
2023-04-28T21:17:34.688Z,17.20
2023-04-28T21:20:02.619Z,17.10
2023-04-28T21:22:31.899Z,17.10
2023-04-28T21:24:59.860Z,17.10
2023-04-28T21:27:27.991Z,17.10
2023-04-28T21:29:55.952Z,17.00
2023-04-28T21:32:23.957Z,17.00
2023-04-28T21:34:51.939Z,17.00
2023-04-28T21:37:20.061Z,16.90
2023-04-28T21:39:47.892Z,16.90
2023-04-28T21:42:16.082Z,16.90
2023-04-28T21:44:43.886Z,16.90
2023-04-28T21:47:11.846Z,16.90
2023-04-28T21:49:40.447Z,16.90
2023-04-28T21:52:08.843Z,16.90
2023-04-28T21:54:36.828Z,16.80
2023-04-28T21:57:05.190Z,16.90
2023-04-28T21:59:34.099Z,16.90
2023-04-28T22:02:03.105Z,16.90
2023-04-28T22:04:31.279Z,16.80
2023-04-28T22:06:59.551Z,16.80
2023-04-28T22:09:28.502Z,16.80
2023-04-28T22:11:56.457Z,16.80
2023-04-28T22:14:39.584Z,16.70
2023-04-28T22:17:09.232Z,16.70
2023-04-28T22:19:37.040Z,16.70
2023-04-28T22:22:05.547Z,16.70
2023-04-28T22:24:33.691Z,16.70
2023-04-28T22:27:01.618Z,16.70
2023-04-28T22:29:29.552Z,16.70
2023-04-28T22:31:59.130Z,16.60
2023-04-28T22:34:26.984Z,16.60
2023-04-28T22:36:55.341Z,16.60
2023-04-28T22:39:25.336Z,16.60
2023-04-28T22:41:53.428Z,16.60
2023-04-28T22:44:21.207Z,16.60
2023-04-28T22:46:49.319Z,16.60
2023-04-28T22:49:17.124Z,16.60
2023-04-28T22:51:45.191Z,16.60
2023-04-28T22:54:13.141Z,16.60
2023-04-28T22:56:41.674Z,16.60
2023-04-28T22:59:09.867Z,16.70
2023-04-28T23:01:38.219Z,16.70
2023-04-28T23:04:06.432Z,16.60
2023-04-28T23:06:34.738Z,16.70
2023-04-28T23:09:04.149Z,16.70
2023-04-28T23:11:32.182Z,16.70
2023-04-28T23:14:00.301Z,16.60
2023-04-28T23:16:28.295Z,16.70
2023-04-28T23:18:56.357Z,16.70
2023-04-28T23:21:25.575Z,16.70
2023-04-28T23:23:53.674Z,16.70
2023-04-28T23:26:22.259Z,16.60
2023-04-28T23:28:50.339Z,16.70
2023-04-28T23:31:18.158Z,16.60
2023-04-28T23:33:46.001Z,16.70
2023-04-28T23:36:14.157Z,16.70
2023-04-28T23:38:42.141Z,16.60
2023-04-28T23:41:10.259Z,16.60
2023-04-28T23:43:38.088Z,16.60
2023-04-28T23:46:07.191Z,16.60
2023-04-28T23:48:37.792Z,16.60
2023-04-28T23:51:05.630Z,16.60
2023-04-28T23:53:36.527Z,16.60
2023-04-28T23:56:15.134Z,16.60
2023-04-28T23:58:44.732Z,16.60
